createdAt,value
2023-05-03T18:06:52.129Z,100024.13
2023-05-03T18:09:20.268Z,100032.72
2023-05-03T18:21:01.326Z,100010.53
2023-05-03T18:23:31.154Z,100006.91
2023-05-03T18:25:58.608Z,99989.03
2023-05-03T18:28:26.854Z,100018.47
2023-05-03T18:30:56.079Z,100001.25
2023-05-03T18:33:23.859Z,100019.69
2023-05-03T18:35:52.683Z,100021.88
2023-05-03T18:38:22.038Z,100029.66
2023-05-03T18:40:54.896Z,100029.34
2023-05-03T18:43:22.996Z,100025.41
2023-05-03T18:45:51.405Z,100038.78
2023-05-03T18:48:19.072Z,100015.06
2023-05-03T18:50:46.370Z,100038.00
2023-05-03T18:53:14.985Z,100040.09
2023-05-03T18:55:43.854Z,100038.84
2023-05-03T18:58:11.577Z,100024.69
2023-05-03T19:00:39.369Z,100043.44
2023-05-03T19:03:09.102Z,100048.88
2023-05-03T19:05:36.577Z,100052.84
2023-05-03T19:08:05.786Z,100047.41
2023-05-03T19:10:34.791Z,100046.75
2023-05-03T19:13:03.277Z,100043.00
2023-05-03T19:15:31.184Z,100041.53
2023-05-03T19:18:01.867Z,100041.53
2023-05-03T19:20:29.705Z,100032.38
2023-05-03T19:22:57.437Z,100041.31
2023-05-03T19:25:25.806Z,100048.41
2023-05-03T19:27:54.950Z,100034.22
2023-05-03T19:30:23.907Z,100051.97
2023-05-03T19:32:53.525Z,100055.56
2023-05-03T19:35:20.927Z,100040.94
2023-05-03T19:37:52.707Z,100046.78
2023-05-03T19:40:22.482Z,100046.97
2023-05-03T19:42:52.535Z,100042.19
2023-05-03T19:45:22.650Z,100048.66
2023-05-03T19:47:52.989Z,100045.34
2023-05-03T19:50:21.382Z,100045.94
2023-05-03T19:52:53.566Z,100048.88
2023-05-03T19:55:23.105Z,100047.19
2023-05-03T19:57:50.779Z,100045.13
2023-05-03T20:00:21.062Z,100036.56
2023-05-03T20:02:48.997Z,100033.03
2023-05-03T20:05:16.378Z,100038.03
2023-05-03T20:07:44.614Z,100036.16
2023-05-03T20:10:12.042Z,100039.69
2023-05-03T20:12:39.642Z,100034.88
2023-05-03T20:15:08.777Z,100029.69
2023-05-03T20:17:36.388Z,100010.91
2023-05-03T20:20:10.118Z,100036.75
2023-05-03T20:22:40.258Z,100034.28
2023-05-03T20:25:08.489Z,100045.13
2023-05-03T20:27:36.074Z,100037.19
2023-05-03T20:30:06.295Z,100048.03
2023-05-03T20:32:39.256Z,100043.66
2023-05-03T20:35:10.618Z,100047.84
2023-05-03T20:37:38.746Z,100045.53
2023-05-03T20:40:10.341Z,100033.03
2023-05-03T20:42:38.253Z,100043.63
2023-05-03T20:45:06.417Z,100056.75
2023-05-03T20:47:36.361Z,100050.94
2023-05-03T20:50:04.777Z,100052.19
2023-05-03T20:52:34.534Z,100068.03
2023-05-03T20:55:02.711Z,100056.16
2023-05-03T20:57:31.866Z,100060.31
2023-05-03T21:00:00.267Z,100049.25
2023-05-03T21:02:28.258Z,100049.25
2023-05-03T21:04:56.602Z,100068.44
2023-05-03T21:07:24.212Z,100056.38
2023-05-03T21:09:52.436Z,100066.38
2023-05-03T21:12:20.104Z,100056.97
2023-05-03T21:14:50.399Z,100063.47
2023-05-03T21:17:18.803Z,100065.09
2023-05-03T21:19:48.943Z,100069.50
2023-05-03T21:22:17.074Z,100060.94
2023-05-03T21:24:45.800Z,100035.94
2023-05-03T21:27:13.346Z,100053.47
2023-05-03T21:29:40.662Z,100050.53
2023-05-03T21:32:08.254Z,100035.94
2023-05-03T21:34:35.600Z,100061.59
2023-05-03T21:37:03.914Z,100061.81
2023-05-03T21:39:31.182Z,100050.97
2023-05-03T21:41:58.894Z,100054.28
2023-05-03T21:44:27.890Z,100054.72
2023-05-03T21:46:55.587Z,100062.84
2023-05-03T21:49:23.034Z,100063.91
2023-05-03T21:51:50.576Z,100066.38
2023-05-03T21:54:19.289Z,100053.91
2023-05-03T21:56:46.875Z,100068.50
2023-05-03T21:59:14.251Z,100055.13
2023-05-03T22:01:45.222Z,100074.94
2023-05-03T22:04:13.058Z,100067.19
2023-05-03T22:06:40.668Z,100070.56
2023-05-03T22:09:08.850Z,100069.28
2023-05-03T22:11:36.752Z,100067.63
2023-05-03T22:14:08.065Z,100070.09
2023-05-03T22:16:43.576Z,100078.84
2023-05-03T22:19:12.054Z,100077.38
2023-05-03T22:21:40.426Z,100075.72
2023-05-03T22:24:08.763Z,100071.34
2023-05-03T22:26:37.754Z,100075.72
2023-05-03T22:29:05.385Z,100079.03
2023-05-03T22:31:33.648Z,100071.31
2023-05-03T22:34:05.166Z,100079.69
2023-05-03T22:36:37.470Z,100079.44
2023-05-03T22:39:05.883Z,100076.97
2023-05-03T22:41:33.738Z,100070.03
2023-05-03T22:44:02.079Z,100056.69
2023-05-03T22:46:30.381Z,100071.88
2023-05-03T22:48:57.852Z,100075.47
2023-05-03T22:51:27.771Z,100059.75
2023-05-03T22:53:55.614Z,100051.81
2023-05-03T22:56:23.186Z,100071.84
2023-05-03T22:58:51.218Z,100060.75
2023-05-03T23:01:19.630Z,100060.78
2023-05-03T23:03:47.162Z,100060.75
2023-05-03T23:06:15.147Z,100050.75
2023-05-03T23:08:42.499Z,100052.44
2023-05-03T23:11:11.269Z,100050.31
2023-05-03T23:13:40.375Z,100051.59
2023-05-03T23:16:08.551Z,100044.94
2023-05-03T23:18:37.240Z,100042.44
2023-05-03T23:21:05.173Z,100041.59
2023-05-03T23:23:34.578Z,100049.53
2023-05-03T23:26:02.303Z,100048.69
2023-05-03T23:28:32.054Z,100031.16
2023-05-03T23:31:00.060Z,100042.00
2023-05-03T23:33:29.326Z,100043.50
2023-05-03T23:35:57.389Z,100034.47
2023-05-03T23:38:24.806Z,100039.03
2023-05-03T23:40:52.803Z,100036.16
2023-05-03T23:43:20.331Z,100027.38
2023-05-03T23:45:50.012Z,100031.31
2023-05-03T23:48:17.327Z,100033.59
2023-05-03T23:50:45.141Z,100037.13
2023-05-03T23:53:12.374Z,100023.63
2023-05-03T23:55:40.073Z,100029.03
2023-05-03T23:58:07.396Z,100014.47
